Time;durP1;ratioP1;P1;durP2;ratioP2;P2;SDS_P1;SDS_P2;PMS_P1;PMS_P2;Temp;Humidity;BMP_temperature;BMP_pressure;BME280_temperature;BME280_humidity;BME280_pressure;Samples;Min_cycle;Max_cycle;Signal;HPM_P1;HPM_P2
2021/12/21 00:00:33;;;;;;;4.00;1.80;;;;;;;;;;6115100;23;20005;-75
2021/12/21 00:03:00;;;;;;;7.10;1.90;;;;;;;;;;6137983;23;20080;-78
2021/12/21 00:05:29;;;;;;;3.08;1.98;;;;;;;;;;6140735;23;20064;-75
2021/12/21 00:08:00;;;;;;;4.55;2.17;;;;;;;;;;6143508;23;19998;-74
2021/12/21 00:10:29;;;;;;;4.38;2.13;;;;;;;;;;6142828;23;20010;-86
2021/12/21 00:20:48;;;;;;;7.00;2.05;;;;;;;;;;6143719;23;20075;-80
2021/12/21 00:23:30;;;;;;;4.13;1.90;;;;;;;;;;6142859;23;20006;-75
2021/12/21 00:25:56;;;;;;;;;;;;;;;;;;6142743;23;20037;-75
2021/12/21 00:28:24;;;;;;;2.75;2.08;;;;;;;;;;6143630;23;19983;-82
2021/12/21 00:30:50;;;;;;;5.18;2.20;;;;;;;;;;6143776;23;20342;-75
2021/12/21 00:33:17;;;;;;;3.08;1.70;;;;;;;;;;6143406;23;20064;-74
2021/12/21 00:35:43;;;;;;;3.65;2.05;;;;;;;;;;6143542;23;20665;-84
2021/12/21 00:38:09;;;;;;;2.70;1.88;;;;;;;;;;6141140;23;20089;-75
2021/12/21 00:40:36;;;;;;;4.00;1.70;;;;;;;;;;6143045;23;20006;-75
2021/12/21 00:43:02;;;;;;;2.75;1.83;;;;;;;;;;6144488;23;20001;-79
2021/12/21 00:45:28;;;;;;;5.53;2.20;;;;;;;;;;6142964;23;20554;-84
2021/12/21 00:47:55;;;;;;;2.80;1.92;;;;;;;;;;6143322;23;20021;-77
2021/12/21 00:50:22;;;;;;;3.35;1.92;;;;;;;;;;6142621;23;20016;-86
2021/12/21 00:52:49;;;;;;;5.60;1.98;;;;;;;;;;6143484;23;20033;-79
2021/12/21 00:55:16;;;;;;;3.55;1.85;;;;;;;;;;6143952;23;20002;-78
2021/12/21 00:57:43;;;;;;;4.20;1.90;;;;;;;;;;6141834;23;20029;-76
2021/12/21 01:00:11;;;;;;;3.97;1.90;;;;;;;;;;6142885;23;20005;-75
2021/12/21 01:02:38;;;;;;;2.75;1.65;;;;;;;;;;6144722;23;20355;-85
2021/12/21 01:05:10;;;;;;;2.97;2.30;;;;;;;;;;6144010;23;20010;-79
2021/12/21 01:07:41;;;;;;;6.43;1.88;;;;;;;;;;6144687;23;20006;-77
2021/12/21 01:13:13;;;;;;;4.32;1.83;;;;;;;;;;6154278;23;20021;-75
2021/12/21 01:18:31;;;;;;;3.13;2.10;;;;;;;;;;6153853;23;20087;-87
2021/12/21 01:26:23;;;;;;;2.72;1.95;;;;;;;;;;6147747;23;20020;-84
2021/12/21 01:49:40;;;;;;;4.63;2.10;;;;;;;;;;6148011;23;20149;-84
2021/12/21 01:52:08;;;;;;;4.95;2.35;;;;;;;;;;6147283;23;20329;-75
2021/12/21 01:54:35;;;;;;;7.30;1.98;;;;;;;;;;6147638;23;20028;-80
2021/12/21 01:57:01;;;;;;;2.85;1.63;;;;;;;;;;6147698;23;20020;-84
2021/12/21 01:59:27;;;;;;;3.83;1.83;;;;;;;;;;6145583;23;20005;-84
2021/12/21 02:01:54;;;;;;;3.65;1.73;;;;;;;;;;6147708;23;20009;-84
2021/12/21 02:04:20;;;;;;;3.03;2.00;;;;;;;;;;6146346;23;20113;-84
2021/12/21 02:06:48;;;;;;;2.95;1.67;;;;;;;;;;6145544;23;20067;-83
2021/12/21 02:09:16;;;;;;;7.07;2.50;;;;;;;;;;6121147;23;20013;-82
2021/12/21 02:11:42;;;;;;;4.03;1.63;;;;;;;;;;6148199;23;19998;-81
2021/12/21 02:14:10;;;;;;;3.40;2.03;;;;;;;;;;6148273;23;20008;-85
2021/12/21 02:16:47;;;;;;;4.15;1.83;;;;;;;;;;6148041;23;20493;-82
2021/12/21 02:19:29;;;;;;;4.22;1.85;;;;;;;;;;6147118;23;20085;-76
2021/12/21 02:22:06;;;;;;;4.53;1.73;;;;;;;;;;6148390;23;20060;-84
2021/12/21 02:24:42;;;;;;;5.72;2.13;;;;;;;;;;6149499;23;20021;-79
2021/12/21 02:30:04;;;;;;;3.22;2.00;;;;;;;;;;6120012;23;20121;-84
2021/12/21 02:32:30;;;;;;;4.38;2.05;;;;;;;;;;6148847;23;20566;-78
2021/12/21 02:34:56;;;;;;;2.65;1.70;;;;;;;;;;6121783;23;20460;-77
2021/12/21 02:37:22;;;;;;;6.78;1.90;;;;;;;;;;6145221;23;20020;-76
2021/12/21 02:39:48;;;;;;;3.85;1.90;;;;;;;;;;6143316;23;20009;-75
2021/12/21 02:42:14;;;;;;;6.65;1.90;;;;;;;;;;6142913;23;20012;-76
2021/12/21 02:44:47;;;;;;;3.40;1.70;;;;;;;;;;6142257;23;20017;-76
2021/12/21 02:47:13;;;;;;;2.92;1.83;;;;;;;;;;6143370;23;20009;-76
2021/12/21 02:49:39;;;;;;;3.78;1.80;;;;;;;;;;6143080;23;20020;-83
2021/12/21 02:52:06;;;;;;;3.75;1.52;;;;;;;;;;6140988;23;20059;-82
2021/12/21 02:54:32;;;;;;;4.55;1.95;;;;;;;;;;6142469;23;20001;-76
2021/12/21 02:56:58;;;;;;;8.30;2.20;;;;;;;;;;6143106;23;20561;-84
2021/12/21 02:59:24;;;;;;;3.90;1.92;;;;;;;;;;6142825;23;20010;-81
2021/12/21 03:01:50;;;;;;;2.90;1.45;;;;;;;;;;6141964;23;20072;-80
2021/12/21 03:04:17;;;;;;;3.05;1.80;;;;;;;;;;6141761;23;20010;-76
2021/12/21 03:09:41;;;;;;;3.53;2.05;;;;;;;;;;6126058;23;20324;-76
2021/12/21 03:14:38;;;;;;;3.03;1.80;;;;;;;;;;6148658;23;20025;-77
2021/12/21 03:17:05;;;;;;;4.40;1.85;;;;;;;;;;6142155;23;20423;-82
2021/12/21 03:19:31;;;;;;;4.85;1.67;;;;;;;;;;6143266;23;20574;-75
2021/12/21 03:21:57;;;;;;;4.32;2.03;;;;;;;;;;6142340;23;20017;-81
2021/12/21 03:24:23;;;;;;;3.00;2.03;;;;;;;;;;6140454;23;20021;-77
2021/12/21 03:26:50;;;;;;;3.55;2.20;;;;;;;;;;6142430;23;20077;-76
2021/12/21 03:29:16;;;;;;;5.22;1.85;;;;;;;;;;6142142;23;20033;-75
2021/12/21 03:31:43;;;;;;;3.45;1.90;;;;;;;;;;6140299;23;20514;-76
2021/12/21 03:34:09;;;;;;;4.18;1.58;;;;;;;;;;6141095;23;20854;-86
2021/12/21 03:36:35;;;;;;;4.93;1.63;;;;;;;;;;6142981;23;20006;-76
2021/12/21 03:39:06;;;;;;;4.07;1.90;;;;;;;;;;6116311;23;20513;-77
2021/12/21 03:41:33;;;;;;;3.85;1.77;;;;;;;;;;6142080;23;20048;-78
2021/12/21 03:44:01;;;;;;;4.68;3.15;;;;;;;;;;6139617;23;20119;-83
2021/12/21 03:46:28;;;;;;;5.07;2.10;;;;;;;;;;6142471;23;20056;-75
2021/12/21 03:48:55;;;;;;;6.20;3.28;;;;;;;;;;6142633;23;20010;-75
2021/12/21 03:51:21;;;;;;;4.30;1.85;;;;;;;;;;6116286;23;20434;-77
2021/12/21 03:53:48;;;;;;;3.60;2.00;;;;;;;;;;6142745;23;20064;-79
2021/12/21 03:58:40;;;;;;;6.90;2.03;;;;;;;;;;6143704;23;20423;-76
2021/12/21 04:01:07;;;;;;;4.88;1.92;;;;;;;;;;6141443;23;20005;-77
2021/12/21 04:03:33;;;;;;;3.75;2.00;;;;;;;;;;6139836;23;20014;-84
2021/12/21 04:05:59;;;;;;;5.82;1.70;;;;;;;;;;6137019;23;20077;-83
2021/12/21 04:08:25;;;;;;;2.60;1.77;;;;;;;;;;6135129;23;20100;-83
2021/12/21 04:10:52;;;;;;;4.85;2.10;;;;;;;;;;6113752;23;20009;-76
2021/12/21 04:13:18;;;;;;;2.97;1.58;;;;;;;;;;6138832;23;20502;-76
2021/12/21 04:15:44;;;;;;;4.78;1.90;;;;;;;;;;6139592;23;20006;-76
2021/12/21 04:18:11;;;;;;;6.63;2.20;;;;;;;;;;6139294;23;20442;-76
2021/12/21 04:20:38;;;;;;;2.53;1.80;;;;;;;;;;6137677;23;20346;-77
2021/12/21 04:23:05;;;;;;;4.10;1.80;;;;;;;;;;6140052;23;20013;-74
2021/12/21 04:25:31;;;;;;;3.22;1.38;;;;;;;;;;6139389;23;20399;-80
2021/12/21 04:27:57;;;;;;;4.53;1.80;;;;;;;;;;6139428;23;20084;-82
2021/12/21 04:30:24;;;;;;;8.60;2.10;;;;;;;;;;6139451;23;20504;-75
2021/12/21 04:32:50;;;;;;;5.05;1.60;;;;;;;;;;6136344;23;20113;-77
2021/12/21 04:35:19;;;;;;;5.13;1.83;;;;;;;;;;6112619;23;20333;-82
2021/12/21 04:37:50;;;;;;;3.13;1.73;;;;;;;;;;6138497;23;19997;-82
2021/12/21 04:40:19;;;;;;;5.18;1.70;;;;;;;;;;6139165;23;20037;-85
2021/12/21 04:42:45;;;;;;;2.70;1.70;;;;;;;;;;6137824;23;20393;-76
2021/12/21 04:45:12;;;;;;;2.67;1.85;;;;;;;;;;6138748;23;20501;-76
2021/12/21 04:47:38;;;;;;;2.67;1.88;;;;;;;;;;6139063;23;19997;-75
2021/12/21 04:50:04;;;;;;;3.17;1.50;;;;;;;;;;6139153;23;20066;-77
2021/12/21 04:52:30;;;;;;;4.47;1.95;;;;;;;;;;6138808;23;20095;-75
2021/12/21 04:54:57;;;;;;;3.92;2.00;;;;;;;;;;6139974;23;20012;-84
2021/12/21 04:57:23;;;;;;;3.95;1.98;;;;;;;;;;6140654;23;20052;-77
2021/12/21 04:59:49;;;;;;;3.00;1.88;;;;;;;;;;6142362;23;20001;-76
2021/12/21 05:02:15;;;;;;;6.53;2.00;;;;;;;;;;6141662;23;20001;-75
2021/12/21 05:04:41;;;;;;;6.10;2.10;;;;;;;;;;6141068;23;20009;-75
2021/12/21 05:07:08;;;;;;;3.60;2.03;;;;;;;;;;6140069;23;20558;-76
2021/12/21 05:09:42;;;;;;;3.67;1.75;;;;;;;;;;6141437;23;20010;-77
2021/12/21 05:12:11;;;;;;;5.90;2.38;;;;;;;;;;6142510;23;20594;-81
2021/12/21 05:14:37;;;;;;;4.93;1.90;;;;;;;;;;6141554;23;20092;-82
2021/12/21 05:17:03;;;;;;;6.95;2.22;;;;;;;;;;6139665;23;20406;-76
2021/12/21 05:19:30;;;;;;;4.47;2.10;;;;;;;;;;6137473;23;20013;-82
2021/12/21 05:21:56;;;;;;;3.50;1.80;;;;;;;;;;6138925;23;20013;-79
2021/12/21 05:24:22;;;;;;;3.25;1.80;;;;;;;;;;6139080;23;20025;-76
2021/12/21 05:26:48;;;;;;;5.70;2.30;;;;;;;;;;6139575;23;20008;-76
2021/12/21 05:29:14;;;;;;;3.50;1.95;;;;;;;;;;6137559;23;20011;-80
2021/12/21 05:31:40;;;;;;;6.78;1.98;;;;;;;;;;6138906;23;20028;-83
2021/12/21 05:34:07;;;;;;;3.15;2.03;;;;;;;;;;6139028;23;20029;-75
2021/12/21 05:36:33;;;;;;;2.83;1.88;;;;;;;;;;6137435;23;20077;-76
2021/12/21 05:39:03;;;;;;;3.65;1.80;;;;;;;;;;6139321;23;20006;-76
2021/12/21 05:44:15;;;;;;;4.35;2.00;;;;;;;;;;6138711;23;20699;-75
2021/12/21 05:46:41;;;;;;;4.70;2.00;;;;;;;;;;6137861;23;20366;-75
2021/12/21 05:49:07;;;;;;;3.30;1.80;;;;;;;;;;6114889;23;20028;-76
2021/12/21 05:51:34;;;;;;;6.70;2.03;;;;;;;;;;6140799;23;20084;-75
2021/12/21 05:54:00;;;;;;;3.85;1.80;;;;;;;;;;6136591;23;20084;-76
2021/12/21 05:56:26;;;;;;;5.38;2.08;;;;;;;;;;6140470;23;20013;-75
2021/12/21 05:58:52;;;;;;;3.75;1.80;;;;;;;;;;6140984;23;20001;-75
2021/12/21 06:01:18;;;;;;;5.90;2.22;;;;;;;;;;6140858;23;20024;-75
2021/12/21 06:03:45;;;;;;;2.97;1.80;;;;;;;;;;6139676;23;20009;-76
2021/12/21 06:06:15;;;;;;;3.75;2.40;;;;;;;;;;6142999;23;20865;-76
2021/12/21 06:08:42;;;;;;;4.22;1.92;;;;;;;;;;6143247;23;20092;-76
2021/12/21 06:11:09;;;;;;;4.78;1.75;;;;;;;;;;6143868;23;20084;-78
2021/12/21 06:27:05;;;;;;;6.45;2.35;;;;;;;;;;6142931;23;20020;-78
2021/12/21 06:29:31;;;;;;;5.85;2.00;;;;;;;;;;6141549;23;20015;-80
2021/12/21 06:31:57;;;;;;;4.40;2.10;;;;;;;;;;6142522;23;20005;-76
2021/12/21 06:34:24;;;;;;;2.65;1.80;;;;;;;;;;6142551;23;20143;-81
2021/12/21 06:36:50;;;;;;;5.10;1.95;;;;;;;;;;6142793;23;20356;-76
2021/12/21 06:39:16;;;;;;;3.58;2.42;;;;;;;;;;6140327;23;20008;-76
2021/12/21 06:41:43;;;;;;;3.88;2.10;;;;;;;;;;6143053;23;20006;-81
2021/12/21 06:44:10;;;;;;;3.50;2.20;;;;;;;;;;6142397;23;20476;-76
2021/12/21 06:46:52;;;;;;;5.85;2.50;;;;;;;;;;6142461;23;20641;-78
2021/12/21 06:52:03;;;;;;;3.50;2.60;;;;;;;;;;6141841;23;20084;-75
2021/12/21 06:54:30;;;;;;;7.07;3.40;;;;;;;;;;6142387;23;20010;-81
2021/12/21 06:56:57;;;;;;;4.95;2.85;;;;;;;;;;6142053;23;20056;-78
2021/12/21 06:59:23;;;;;;;5.20;2.72;;;;;;;;;;6142680;23;20006;-76
2021/12/21 07:01:49;;;;;;;5.78;3.80;;;;;;;;;;6140710;23;20064;-82
2021/12/21 07:04:17;;;;;;;9.00;5.72;;;;;;;;;;6142563;23;20481;-76
2021/12/21 07:06:47;;;;;;;7.63;5.75;;;;;;;;;;6143236;23;20446;-78
2021/12/21 07:09:21;;;;;;;9.35;6.03;;;;;;;;;;6142748;23;20535;-76
2021/12/21 07:11:58;;;;;;;8.95;4.97;;;;;;;;;;6140979;23;20017;-82
2021/12/21 07:19:54;;;;;;;8.43;4.47;;;;;;;;;;6142865;23;20100;-81
2021/12/21 07:22:20;;;;;;;6.85;4.43;;;;;;;;;;6140677;23;20013;-76
2021/12/21 07:24:47;;;;;;;8.55;4.70;;;;;;;;;;6141641;23;20013;-77
2021/12/21 07:27:15;;;;;;;5.80;3.97;;;;;;;;;;6142496;23;20390;-77
2021/12/21 07:29:42;;;;;;;8.15;4.30;;;;;;;;;;6142476;23;20025;-77
2021/12/21 07:32:08;;;;;;;7.55;3.97;;;;;;;;;;6140513;23;20005;-77
2021/12/21 07:34:34;;;;;;;7.38;4.90;;;;;;;;;;6141932;23;20005;-78
2021/12/21 07:37:02;;;;;;;5.35;3.25;;;;;;;;;;6141950;23;20330;-77
2021/12/21 07:39:28;;;;;;;5.40;2.90;;;;;;;;;;6142365;23;20505;-77
2021/12/21 07:41:56;;;;;;;5.75;3.63;;;;;;;;;;6142213;23;19997;-83
2021/12/21 07:44:22;;;;;;;5.82;3.42;;;;;;;;;;6140502;23;20013;-83
2021/12/21 07:46:48;;;;;;;7.85;3.40;;;;;;;;;;6141620;23;20509;-79
2021/12/21 07:49:14;;;;;;;6.82;3.00;;;;;;;;;;6141709;23;20487;-80
2021/12/21 07:51:40;;;;;;;4.85;3.08;;;;;;;;;;6142651;23;20104;-79
2021/12/21 07:54:07;;;;;;;6.03;3.15;;;;;;;;;;6141750;23;20423;-77
2021/12/21 07:56:33;;;;;;;7.03;3.15;;;;;;;;;;6142483;23;20427;-77
2021/12/21 07:58:59;;;;;;;10.80;3.60;;;;;;;;;;6140421;23;20006;-80
2021/12/21 08:01:26;;;;;;;5.35;3.50;;;;;;;;;;6141793;23;20027;-79
2021/12/21 08:03:53;;;;;;;10.40;6.78;;;;;;;;;;6138649;23;20018;-77
2021/12/21 08:06:19;;;;;;;19.25;12.98;;;;;;;;;;6138957;23;20051;-77
2021/12/21 08:08:48;;;;;;;37.67;23.02;;;;;;;;;;6141289;23;20052;-79
2021/12/21 08:11:27;;;;;;;32.38;18.98;;;;;;;;;;6141960;23;20439;-79
2021/12/21 08:13:53;;;;;;;22.60;13.48;;;;;;;;;;6140001;23;20270;-80
2021/12/21 08:16:20;;;;;;;20.45;11.07;;;;;;;;;;6141194;23;20006;-80
2021/12/21 08:18:46;;;;;;;18.45;10.60;;;;;;;;;;6141428;23;20076;-76
2021/12/21 08:21:16;;;;;;;18.63;11.65;;;;;;;;;;6135622;23;20022;-78
2021/12/21 08:23:42;;;;;;;16.35;11.00;;;;;;;;;;6115344;23;20092;-83
2021/12/21 08:26:09;;;;;;;25.00;15.52;;;;;;;;;;6115414;23;20092;-79
2021/12/21 08:28:35;;;;;;;24.08;15.43;;;;;;;;;;6115138;23;20008;-77
2021/12/21 08:31:01;;;;;;;25.55;17.63;;;;;;;;;;6140876;23;20005;-75
2021/12/21 08:33:27;;;;;;;22.85;15.80;;;;;;;;;;6139028;23;20076;-77
2021/12/21 08:35:54;;;;;;;23.38;15.05;;;;;;;;;;6115349;23;20019;-78
2021/12/21 08:38:21;;;;;;;20.35;12.60;;;;;;;;;;6115528;23;20431;-76
2021/12/21 08:40:49;;;;;;;22.27;13.40;;;;;;;;;;6115811;23;20013;-80
2021/12/21 08:43:24;;;;;;;19.33;13.55;;;;;;;;;;6140134;23;20001;-77
2021/12/21 08:45:52;;;;;;;21.83;12.68;;;;;;;;;;6114996;23;20064;-77
2021/12/21 08:48:18;;;;;;;16.98;11.02;;;;;;;;;;6141029;23;19997;-80
2021/12/21 08:50:45;;;;;;;16.20;11.50;;;;;;;;;;6141255;23;20009;-79
2021/12/21 08:53:13;;;;;;;21.20;13.18;;;;;;;;;;6115167;23;20025;-80
2021/12/21 08:55:40;;;;;;;20.25;13.38;;;;;;;;;;6141537;23;20101;-76
2021/12/21 08:58:07;;;;;;;18.60;13.63;;;;;;;;;;6138869;23;20388;-78
2021/12/21 09:00:33;;;;;;;18.65;13.40;;;;;;;;;;6140843;23;20441;-80
2021/12/21 09:02:59;;;;;;;17.67;12.95;;;;;;;;;;6141540;23;20070;-76
2021/12/21 09:05:29;;;;;;;17.15;11.60;;;;;;;;;;6114093;23;20021;-79
2021/12/21 09:07:55;;;;;;;19.50;11.73;;;;;;;;;;6115531;23;20385;-76
2021/12/21 09:10:23;;;;;;;18.42;11.85;;;;;;;;;;6141593;23;20080;-77
2021/12/21 09:12:49;;;;;;;17.10;10.60;;;;;;;;;;6138229;23;20002;-80
2021/12/21 09:15:16;;;;;;;14.82;10.18;;;;;;;;;;6114958;23;20108;-80
2021/12/21 09:17:44;;;;;;;16.27;11.13;;;;;;;;;;6114503;23;19997;-77
2021/12/21 09:20:20;;;;;;;15.88;9.80;;;;;;;;;;6113913;23;20001;-79
2021/12/21 09:22:47;;;;;;;13.93;9.00;;;;;;;;;;6113678;23;20021;-77
2021/12/21 09:25:14;;;;;;;10.32;7.25;;;;;;;;;;6142524;23;20018;-81
2021/12/21 09:27:41;;;;;;;14.82;9.30;;;;;;;;;;6116739;23;20112;-78
2021/12/21 09:30:09;;;;;;;14.93;9.15;;;;;;;;;;6142960;23;20005;-78
2021/12/21 09:32:35;;;;;;;8.93;7.15;;;;;;;;;;6115445;23;20037;-80
2021/12/21 09:35:02;;;;;;;12.40;7.57;;;;;;;;;;6143030;23;20467;-83
2021/12/21 09:37:28;;;;;;;9.35;7.53;;;;;;;;;;6143406;23;20029;-78
2021/12/21 09:39:55;;;;;;;9.45;6.55;;;;;;;;;;6116852;23;20021;-77
2021/12/21 09:42:26;;;;;;;9.40;5.85;;;;;;;;;;6142412;23;20306;-79
2021/12/21 09:44:52;;;;;;;8.43;6.07;;;;;;;;;;6117042;23;20029;-82
2021/12/21 09:47:19;;;;;;;8.20;5.47;;;;;;;;;;6114998;23;20021;-81
2021/12/21 09:49:46;;;;;;;10.48;5.93;;;;;;;;;;6113265;23;20096;-78
2021/12/21 09:52:14;;;;;;;8.45;6.05;;;;;;;;;;6142665;23;20009;-80
2021/12/21 09:54:41;;;;;;;13.75;5.93;;;;;;;;;;6115837;23;20456;-78
2021/12/21 09:57:17;;;;;;;7.13;5.18;;;;;;;;;;6114650;23;20005;-81
2021/12/21 09:59:44;;;;;;;7.85;4.18;;;;;;;;;;6117446;23;20009;-80
2021/12/21 10:02:13;;;;;;;6.00;4.03;;;;;;;;;;6116286;23;20454;-81
2021/12/21 10:05:00;;;;;;;6.95;4.07;;;;;;;;;;6140402;23;20017;-79
2021/12/21 10:07:27;;;;;;;7.30;4.65;;;;;;;;;;6113395;23;20081;-81
2021/12/21 10:10:16;;;;;;;8.15;4.53;;;;;;;;;;6114777;23;20013;-80
2021/12/21 10:12:47;;;;;;;6.45;4.15;;;;;;;;;;6113894;23;20029;-80
2021/12/21 10:15:29;;;;;;;5.78;3.50;;;;;;;;;;6140098;23;20005;-79
2021/12/21 10:18:03;;;;;;;14.82;6.95;;;;;;;;;;6139306;23;20005;-80
2021/12/21 10:20:51;;;;;;;9.20;5.82;;;;;;;;;;6114615;23;20006;-82
2021/12/21 10:23:43;;;;;;;9.80;5.95;;;;;;;;;;6116918;23;20025;-79
2021/12/21 10:26:19;;;;;;;23.95;14.60;;;;;;;;;;6111466;23;20013;-82
2021/12/21 10:28:49;;;;;;;14.00;7.65;;;;;;;;;;6116147;23;20378;-81
2021/12/21 10:31:42;;;;;;;9.20;5.57;;;;;;;;;;6114349;23;20033;-80
2021/12/21 10:34:34;;;;;;;5.03;2.80;;;;;;;;;;6116287;23;20009;-81
2021/12/21 10:37:01;;;;;;;7.72;2.90;;;;;;;;;;6115574;23;20010;-82
2021/12/21 10:39:31;;;;;;;7.97;3.20;;;;;;;;;;6116018;23;20005;-78
2021/12/21 10:42:09;;;;;;;6.15;3.85;;;;;;;;;;6116473;23;20084;-80
2021/12/21 10:44:40;;;;;;;7.93;4.53;;;;;;;;;;6142542;23;20017;-78
2021/12/21 10:47:11;;;;;;;10.77;3.93;;;;;;;;;;6114247;23;20029;-78
2021/12/21 10:49:41;;;;;;;7.25;2.92;;;;;;;;;;6115917;23;20009;-82
2021/12/21 10:52:07;;;;;;;5.80;2.70;;;;;;;;;;6116935;23;20044;-81
2021/12/21 10:54:39;;;;;;;9.60;3.40;;;;;;;;;;6117034;23;20017;-81
2021/12/21 10:57:10;;;;;;;7.30;3.38;;;;;;;;;;6140357;23;20029;-81
2021/12/21 10:59:39;;;;;;;7.47;3.40;;;;;;;;;;6116291;23;20001;-81
2021/12/21 11:02:21;;;;;;;6.13;2.88;;;;;;;;;;6141976;23;20331;-81
2021/12/21 11:05:06;;;;;;;3.30;2.17;;;;;;;;;;6116160;23;20009;-78
2021/12/21 11:07:45;;;;;;;6.05;3.15;;;;;;;;;;6115845;23;20009;-80
2021/12/21 11:10:26;;;;;;;7.50;3.40;;;;;;;;;;6114289;23;20016;-81
2021/12/21 11:13:03;;;;;;;4.15;2.60;;;;;;;;;;6115801;23;20068;-79
2021/12/21 11:15:34;;;;;;;6.60;2.97;;;;;;;;;;6115663;23;20002;-78
2021/12/21 11:18:05;;;;;;;4.90;2.58;;;;;;;;;;6115316;23;20017;-80
2021/12/21 11:20:35;;;;;;;7.43;3.45;;;;;;;;;;6123459;23;20018;-79
2021/12/21 11:23:04;;;;;;;8.10;3.40;;;;;;;;;;6116826;23;20017;-81
2021/12/21 11:25:32;;;;;;;6.35;3.95;;;;;;;;;;6142811;23;20017;-79
2021/12/21 11:28:01;;;;;;;5.25;3.60;;;;;;;;;;6116005;23;20009;-81
2021/12/21 11:30:29;;;;;;;5.95;3.17;;;;;;;;;;6115706;23;20014;-80
2021/12/21 11:33:18;;;;;;;4.25;2.67;;;;;;;;;;6115436;23;20001;-78
2021/12/21 11:38:34;;;;;;;7.30;2.67;;;;;;;;;;6141274;23;20542;-80
2021/12/21 11:41:01;;;;;;;4.68;2.85;;;;;;;;;;6115995;23;20010;-81
2021/12/21 11:43:41;;;;;;;6.93;2.75;;;;;;;;;;6115677;23;20119;-81
2021/12/21 11:46:25;;;;;;;5.32;3.22;;;;;;;;;;6141292;23;20435;-80
2021/12/21 11:49:17;;;;;;;7.50;3.25;;;;;;;;;;6112667;23;20009;-80
2021/12/21 11:51:43;;;;;;;4.82;3.15;;;;;;;;;;6100597;23;20032;-81
2021/12/21 11:54:20;;;;;;;6.65;3.20;;;;;;;;;;6140612;23;20535;-79
2021/12/21 11:56:59;;;;;;;;;;;;;;;;;;;;;
2021/12/21 11:59:28;;;;;;;9.27;3.83;;;;;;;;;;6140090;23;20100;-79
2021/12/21 12:02:01;;;;;;;7.90;3.53;;;;;;;;;;6113351;23;20093;-78
2021/12/21 12:04:36;;;;;;;5.82;3.78;;;;;;;;;;6115332;23;20390;-81
2021/12/21 12:07:20;;;;;;;5.63;3.13;;;;;;;;;;6140366;23;19997;-80
2021/12/21 12:09:47;;;;;;;4.03;2.60;;;;;;;;;;6113907;23;20012;-80
2021/12/21 12:12:18;;;;;;;5.43;2.83;;;;;;;;;;6115237;23;20012;-78
2021/12/21 12:14:45;;;;;;;5.90;3.08;;;;;;;;;;6142435;23;19998;-82
2021/12/21 12:17:13;;;;;;;5.30;2.80;;;;;;;;;;6115889;23;20006;-79
2021/12/21 12:19:43;;;;;;;5.15;2.95;;;;;;;;;;6090473;23;20012;-81
2021/12/21 12:22:13;;;;;;;5.85;3.28;;;;;;;;;;6112487;23;20022;-79
2021/12/21 12:24:41;;;;;;;5.90;3.40;;;;;;;;;;6141321;23;20039;-78
2021/12/21 12:27:16;;;;;;;5.05;3.28;;;;;;;;;;6141792;23;20002;-82
2021/12/21 12:30:05;;;;;;;3.78;2.92;;;;;;;;;;6115116;23;20081;-81
2021/12/21 12:32:36;;;;;;;15.02;5.03;;;;;;;;;;6115857;23;20006;-77
2021/12/21 12:35:05;;;;;;;16.75;3.92;;;;;;;;;;6139085;23;20005;-78
2021/12/21 12:37:32;;;;;;;9.00;3.47;;;;;;;;;;6115055;23;20001;-80
2021/12/21 12:40:08;;;;;;;6.10;2.92;;;;;;;;;;6141440;23;20013;-79
2021/12/21 12:42:35;;;;;;;5.95;3.40;;;;;;;;;;6138231;23;20005;-78
2021/12/21 12:45:05;;;;;;;6.35;3.50;;;;;;;;;;6115339;23;20091;-77
2021/12/21 12:47:43;;;;;;;7.43;3.28;;;;;;;;;;6140688;23;19997;-81
2021/12/21 12:50:24;;;;;;;8.05;3.33;;;;;;;;;;6114487;23;20009;-80
2021/12/21 12:52:52;;;;;;;6.00;2.80;;;;;;;;;;6112210;23;20006;-79
2021/12/21 12:55:18;;;;;;;5.30;3.38;;;;;;;;;;6110057;23;20013;-77
2021/12/21 12:57:54;;;;;;;5.13;3.33;;;;;;;;;;6138322;23;20343;-77
2021/12/21 13:00:23;;;;;;;6.65;3.42;;;;;;;;;;6112579;23;20033;-76
2021/12/21 13:02:53;;;;;;;6.80;3.55;;;;;;;;;;6114570;23;20001;-79
2021/12/21 13:05:20;;;;;;;5.70;3.53;;;;;;;;;;6138953;23;20014;-84
2021/12/21 13:07:46;;;;;;;8.05;4.03;;;;;;;;;;6139188;23;20033;-78
2021/12/21 13:10:12;;;;;;;5.90;3.42;;;;;;;;;;6138492;23;20006;-86
2021/12/21 13:12:39;;;;;;;6.72;3.95;;;;;;;;;;6140264;23;20007;-78
2021/12/21 13:15:06;;;;;;;9.73;4.28;;;;;;;;;;6112255;23;20051;-83
2021/12/21 13:17:32;;;;;;;10.88;3.88;;;;;;;;;;6138575;23;20009;-81
2021/12/21 13:20:03;;;;;;;7.60;3.88;;;;;;;;;;6114088;23;20012;-81
2021/12/21 13:22:29;;;;;;;5.85;3.45;;;;;;;;;;6114651;23;20128;-82
2021/12/21 13:24:56;;;;;;;5.03;3.53;;;;;;;;;;6140268;23;20013;-77
2021/12/21 13:27:27;;;;;;;5.65;3.40;;;;;;;;;;6113549;23;19998;-80
2021/12/21 13:29:53;;;;;;;9.18;3.20;;;;;;;;;;6115302;23;20029;-76
2021/12/21 13:32:23;;;;;;;5.32;3.33;;;;;;;;;;6140347;23;20009;-82
2021/12/21 13:34:56;;;;;;;6.63;3.40;;;;;;;;;;6140445;23;19998;-85
2021/12/21 13:37:22;;;;;;;9.27;3.58;;;;;;;;;;6112290;23;20089;-77
2021/12/21 13:39:50;;;;;;;9.10;3.53;;;;;;;;;;6141198;23;20012;-76
2021/12/21 13:42:21;;;;;;;10.15;4.00;;;;;;;;;;6115420;23;20009;-82
2021/12/21 13:44:50;;;;;;;9.57;3.60;;;;;;;;;;6140484;23;20434;-83
2021/12/21 13:47:16;;;;;;;7.38;3.33;;;;;;;;;;6139371;23;20474;-76
2021/12/21 13:49:51;;;;;;;7.38;3.38;;;;;;;;;;6139219;23;20267;-77
2021/12/21 13:52:36;;;;;;;;;;;;;;;;;;;;;
2021/12/21 13:55:04;;;;;;;7.75;3.30;;;;;;;;;;6141562;23;20393;-76
2021/12/21 13:57:32;;;;;;;6.20;2.95;;;;;;;;;;6139429;23;19998;-76
2021/12/21 13:59:59;;;;;;;7.40;3.45;;;;;;;;;;6138545;23;20469;-77
2021/12/21 14:05:30;;;;;;;7.05;3.38;;;;;;;;;;6139973;23;20434;-76
2021/12/21 14:07:59;;;;;;;6.13;3.03;;;;;;;;;;6140446;23;20072;-81
2021/12/21 14:10:26;;;;;;;5.53;3.00;;;;;;;;;;6140424;23;20005;-76
2021/12/21 14:13:00;;;;;;;7.95;3.08;;;;;;;;;;6142463;23;20009;-81
2021/12/21 14:15:38;;;;;;;6.25;2.97;;;;;;;;;;6116237;23;20017;-77
2021/12/21 14:18:24;;;;;;;5.60;2.80;;;;;;;;;;6115470;23;20140;-79
2021/12/21 14:21:00;;;;;;;3.97;3.13;;;;;;;;;;6114188;23;20059;-77
2021/12/21 14:23:28;;;;;;;8.52;3.65;;;;;;;;;;6141949;23;20469;-82
2021/12/21 14:26:05;;;;;;;5.45;3.03;;;;;;;;;;6115635;23;20189;-79
2021/12/21 14:28:31;;;;;;;8.52;3.42;;;;;;;;;;6140592;23;20005;-80
2021/12/21 14:31:03;;;;;;;5.43;2.83;;;;;;;;;;6114673;23;20016;-80
2021/12/21 14:33:45;;;;;;;7.60;3.30;;;;;;;;;;6116655;23;20016;-78
2021/12/21 14:36:15;;;;;;;5.80;3.33;;;;;;;;;;6141548;23;20001;-76
2021/12/21 14:39:10;;;;;;;5.15;3.45;;;;;;;;;;6141567;23;20478;-76
2021/12/21 14:41:40;;;;;;;8.40;3.33;;;;;;;;;;6115966;23;20493;-77
2021/12/21 14:44:08;;;;;;;5.50;3.30;;;;;;;;;;6116182;23;20037;-76
2021/12/21 14:46:37;;;;;;;4.55;3.22;;;;;;;;;;6141707;23;20080;-78
2021/12/21 14:49:08;;;;;;;4.70;2.90;;;;;;;;;;6113885;23;20002;-75
2021/12/21 14:51:38;;;;;;;5.63;2.97;;;;;;;;;;6141335;23;20445;-82
2021/12/21 14:54:22;;;;;;;9.15;3.08;;;;;;;;;;6142181;23;20001;-81
2021/12/21 14:56:49;;;;;;;6.28;2.80;;;;;;;;;;6115965;23;20033;-81
2021/12/21 14:59:18;;;;;;;6.95;2.90;;;;;;;;;;6140126;23;20037;-78
2021/12/21 15:01:53;;;;;;;6.50;3.00;;;;;;;;;;6113876;23;20029;-78
2021/12/21 15:04:26;;;;;;;6.32;2.85;;;;;;;;;;6141574;23;20049;-80
2021/12/21 15:07:01;;;;;;;5.25;2.80;;;;;;;;;;6116141;23;20491;-78
2021/12/21 15:09:27;;;;;;;4.63;2.83;;;;;;;;;;6113734;23;20033;-79
2021/12/21 15:11:55;;;;;;;6.53;2.63;;;;;;;;;;6142069;23;20386;-79
2021/12/21 15:14:24;;;;;;;6.85;2.90;;;;;;;;;;6115853;23;20637;-78
2021/12/21 15:16:51;;;;;;;8.63;3.20;;;;;;;;;;6141445;23;20006;-79
2021/12/21 15:19:17;;;;;;;7.85;2.85;;;;;;;;;;6115792;23;20010;-77
2021/12/21 15:21:44;;;;;;;6.25;2.95;;;;;;;;;;6113518;23;20006;-79
2021/12/21 15:24:12;;;;;;;5.25;2.83;;;;;;;;;;6142291;23;20010;-79
2021/12/21 15:26:38;;;;;;;4.47;2.83;;;;;;;;;;6115681;23;20005;-80
2021/12/21 15:29:25;;;;;;;5.40;2.60;;;;;;;;;;6116669;23;20119;-79
2021/12/21 15:31:51;;;;;;;4.55;2.88;;;;;;;;;;6113681;23;20088;-80
2021/12/21 15:34:17;;;;;;;7.82;3.25;;;;;;;;;;6115573;23;20006;-79
2021/12/21 15:36:44;;;;;;;5.20;2.88;;;;;;;;;;6141722;23;20036;-79
2021/12/21 15:39:17;;;;;;;6.07;3.10;;;;;;;;;;6141696;23;19998;-79
2021/12/21 15:41:47;;;;;;;7.60;3.80;;;;;;;;;;6112957;23;20010;-78
2021/12/21 15:44:15;;;;;;;5.32;3.58;;;;;;;;;;6115054;23;20008;-79
2021/12/21 15:46:45;;;;;;;6.90;3.60;;;;;;;;;;6116761;23;20134;-79
2021/12/21 15:49:14;;;;;;;6.57;3.53;;;;;;;;;;6115703;23;19998;-79
2021/12/21 15:51:40;;;;;;;6.28;3.75;;;;;;;;;;6117122;23;20104;-78
2021/12/21 15:54:06;;;;;;;5.43;4.00;;;;;;;;;;6116456;23;20089;-78
2021/12/21 15:56:32;;;;;;;8.48;4.72;;;;;;;;;;6139756;23;19997;-79
2021/12/21 15:59:01;;;;;;;7.75;4.60;;;;;;;;;;6115960;23;20036;-80
2021/12/21 16:01:28;;;;;;;7.55;4.70;;;;;;;;;;6141305;23;20085;-76
2021/12/21 16:03:54;;;;;;;10.75;4.57;;;;;;;;;;6140248;23;20009;-77
2021/12/21 16:06:20;;;;;;;8.15;4.18;;;;;;;;;;6115595;23;20005;-77
2021/12/21 16:08:46;;;;;;;14.32;4.75;;;;;;;;;;6115369;23;20264;-74
2021/12/21 16:11:16;;;;;;;7.25;4.57;;;;;;;;;;6141448;23;20636;-77
2021/12/21 16:13:42;;;;;;;18.52;4.43;;;;;;;;;;6141979;23;19998;-81
2021/12/21 16:16:08;;;;;;;11.18;4.30;;;;;;;;;;6141917;23;20012;-76